sensor_id;sensor_type;location;lat;lon;timestamp;pressure;altitude;pressure_sealevel;temperature;humidity
62708;BME280;48769;51.624;5.886;2024-02-21T00:01:16;102051.16;;;9.60;100.00
62708;BME280;48769;51.624;5.886;2024-02-21T00:03:41;102048.50;;;9.62;100.00
62708;BME280;48769;51.624;5.886;2024-02-21T00:06:07;102057.28;;;9.63;100.00
62708;BME280;48769;51.624;5.886;2024-02-21T00:08:32;102051.09;;;9.64;100.00
62708;BME280;48769;51.624;5.886;2024-02-21T00:10:57;102053.56;;;9.68;100.00
62708;BME280;48769;51.624;5.886;2024-02-21T00:13:22;102039.44;;;9.71;100.00
62708;BME280;48769;51.624;5.886;2024-02-21T00:15:48;102037.72;;;9.70;100.00
62708;BME280;48769;51.624;5.886;2024-02-21T00:18:13;102042.22;;;9.66;100.00
62708;BME280;48769;51.624;5.886;2024-02-21T00:20:39;102045.66;;;9.68;100.00
62708;BME280;48769;51.624;5.886;2024-02-21T00:23:04;102043.91;;;9.69;100.00
62708;BME280;48769;51.624;5.886;2024-02-21T00:25:30;102035.16;;;9.67;100.00
62708;BME280;48769;51.624;5.886;2024-02-21T00:27:55;102040.34;;;9.70;100.00
62708;BME280;48769;51.624;5.886;2024-02-21T00:30:20;102042.16;;;9.68;100.00
62708;BME280;48769;51.624;5.886;2024-02-21T00:32:46;102037.66;;;9.71;100.00
62708;BME280;48769;51.624;5.886;2024-02-21T00:35:11;102030.63;;;9.72;100.00
62708;BME280;48769;51.624;5.886;2024-02-21T00:37:37;102028.00;;;9.72;100.00
62708;BME280;48769;51.624;5.886;2024-02-21T00:40:03;102020.03;;;9.73;100.00
62708;BME280;48769;51.624;5.886;2024-02-21T00:42:28;102013.88;;;9.73;100.00
62708;BME280;48769;51.624;5.886;2024-02-21T00:44:54;102003.34;;;9.73;100.00
62708;BME280;48769;51.624;5.886;2024-02-21T00:47:19;101999.16;;;9.66;100.00
62708;BME280;48769;51.624;5.886;2024-02-21T00:49:44;101991.31;;;9.63;100.00
62708;BME280;48769;51.624;5.886;2024-02-21T00:52:09;101992.28;;;9.58;100.00
62708;BME280;48769;51.624;5.886;2024-02-21T00:54:35;101996.78;;;9.56;100.00
62708;BME280;48769;51.624;5.886;2024-02-21T00:57:00;101985.38;;;9.54;100.00
62708;BME280;48769;51.624;5.886;2024-02-21T00:59:25;101984.50;;;9.55;100.00
62708;BME280;48769;51.624;5.886;2024-02-21T01:01:51;101986.13;;;9.59;100.00
62708;BME280;48769;51.624;5.886;2024-02-21T01:04:16;101977.31;;;9.60;100.00
62708;BME280;48769;51.624;5.886;2024-02-21T01:06:41;101976.59;;;9.55;100.00
62708;BME280;48769;51.624;5.886;2024-02-21T01:09:09;101979.22;;;9.55;100.00
62708;BME280;48769;51.624;5.886;2024-02-21T01:11:35;101975.66;;;9.56;100.00
62708;BME280;48769;51.624;5.886;2024-02-21T01:14:00;101980.16;;;9.53;100.00
62708;BME280;48769;51.624;5.886;2024-02-21T01:16:26;101967.06;;;9.50;100.00
62708;BME280;48769;51.624;5.886;2024-02-21T01:18:51;101977.56;;;9.51;100.00
62708;BME280;48769;51.624;5.886;2024-02-21T01:21:17;101981.19;;;9.47;100.00
62708;BME280;48769;51.624;5.886;2024-02-21T01:23:42;101976.88;;;9.45;100.00
62708;BME280;48769;51.624;5.886;2024-02-21T01:26:08;101986.66;;;9.41;100.00
62708;BME280;48769;51.624;5.886;2024-02-21T01:28:34;101990.19;;;9.40;100.00
62708;BME280;48769;51.624;5.886;2024-02-21T01:31:00;101977.03;;;9.39;100.00
62708;BME280;48769;51.624;5.886;2024-02-21T01:33:26;101965.72;;;9.35;100.00
62708;BME280;48769;51.624;5.886;2024-02-21T01:35:52;101967.59;;;9.31;100.00
62708;BME280;48769;51.624;5.886;2024-02-21T01:38:17;101962.41;;;9.28;100.00
62708;BME280;48769;51.624;5.886;2024-02-21T01:40:43;101950.16;;;9.26;100.00
62708;BME280;48769;51.624;5.886;2024-02-21T01:43:16;101951.94;;;9.25;100.00
62708;BME280;48769;51.624;5.886;2024-02-21T01:45:42;101943.94;;;9.28;100.00
62708;BME280;48769;51.624;5.886;2024-02-21T01:48:07;101932.63;;;9.25;100.00
62708;BME280;48769;51.624;5.886;2024-02-21T01:50:33;101927.34;;;9.25;100.00
62708;BME280;48769;51.624;5.886;2024-02-21T01:52:59;101927.44;;;9.22;100.00
62708;BME280;48769;51.624;5.886;2024-02-21T01:55:24;101922.25;;;9.19;100.00
62708;BME280;48769;51.624;5.886;2024-02-21T01:58:23;101916.25;;;9.13;100.00
62708;BME280;48769;51.624;5.886;2024-02-21T02:00:50;101911.94;;;9.09;100.00
62708;BME280;48769;51.624;5.886;2024-02-21T02:03:16;101913.69;;;9.10;100.00
62708;BME280;48769;51.624;5.886;2024-02-21T02:05:51;101906.75;;;9.06;100.00
62708;BME280;48769;51.624;5.886;2024-02-21T02:08:18;101896.31;;;9.03;100.00
62708;BME280;48769;51.624;5.886;2024-02-21T02:10:45;101896.41;;;9.00;100.00
62708;BME280;48769;51.624;5.886;2024-02-21T02:13:11;101902.63;;;8.98;100.00
62708;BME280;48769;51.624;5.886;2024-02-21T02:15:41;101909.63;;;8.99;100.00
62708;BME280;48769;51.624;5.886;2024-02-21T02:18:07;101910.53;;;8.98;100.00
62708;BME280;48769;51.624;5.886;2024-02-21T02:20:32;101909.59;;;9.00;100.00
62708;BME280;48769;51.624;5.886;2024-02-21T02:23:10;101908.53;;;9.06;100.00
62708;BME280;48769;51.624;5.886;2024-02-21T02:25:37;101910.22;;;9.08;100.00
62708;BME280;48769;51.624;5.886;2024-02-21T02:28:06;101905.78;;;9.10;100.00
62708;BME280;48769;51.624;5.886;2024-02-21T02:30:32;101899.59;;;9.11;100.00
62708;BME280;48769;51.624;5.886;2024-02-21T02:32:59;101898.66;;;9.14;100.00
62708;BME280;48769;51.624;5.886;2024-02-21T02:35:24;101890.78;;;9.12;100.00
62708;BME280;48769;51.624;5.886;2024-02-21T02:37:50;101896.91;;;9.13;100.00
62708;BME280;48769;51.624;5.886;2024-02-21T02:40:15;101889.84;;;9.15;100.00
62708;BME280;48769;51.624;5.886;2024-02-21T02:42:41;101877.47;;;9.17;100.00
62708;BME280;48769;51.624;5.886;2024-02-21T02:45:07;101872.97;;;9.21;100.00
62708;BME280;48769;51.624;5.886;2024-02-21T02:47:32;101865.94;;;9.21;100.00
62708;BME280;48769;51.624;5.886;2024-02-21T02:49:59;101863.25;;;9.23;100.00
62708;BME280;48769;51.624;5.886;2024-02-21T02:52:25;101859.72;;;9.24;100.00
62708;BME280;48769;51.624;5.886;2024-02-21T02:54:50;101858.03;;;9.21;100.00
62708;BME280;48769;51.624;5.886;2024-02-21T02:57:17;101854.38;;;9.25;100.00
62708;BME280;48769;51.624;5.886;2024-02-21T02:59:50;101851.72;;;9.27;100.00
62708;BME280;48769;51.624;5.886;2024-02-21T03:02:15;101848.25;;;9.25;100.00
62708;BME280;48769;51.624;5.886;2024-02-21T03:04:41;101850.03;;;9.24;100.00
62708;BME280;48769;51.624;5.886;2024-02-21T03:07:06;101852.56;;;9.27;100.00
62708;BME280;48769;51.624;5.886;2024-02-21T03:09:31;101851.63;;;9.30;100.00
62708;BME280;48769;51.624;5.886;2024-02-21T03:11:57;101851.53;;;9.33;100.00
62708;BME280;48769;51.624;5.886;2024-02-21T03:14:30;101845.34;;;9.34;100.00
62708;BME280;48769;51.624;5.886;2024-02-21T03:16:57;101842.63;;;9.37;100.00
62708;BME280;48769;51.624;5.886;2024-02-21T03:19:23;101831.13;;;9.38;100.00
62708;BME280;48769;51.624;5.886;2024-02-21T03:21:49;101832.06;;;9.37;100.00
62708;BME280;48769;51.624;5.886;2024-02-21T03:24:15;101829.44;;;9.35;100.00
62708;BME280;48769;51.624;5.886;2024-02-21T03:26:41;101840.00;;;9.35;100.00
62708;BME280;48769;51.624;5.886;2024-02-21T03:29:06;101839.03;;;9.40;100.00
62708;BME280;48769;51.624;5.886;2024-02-21T03:31:31;101832.06;;;9.37;100.00
62708;BME280;48769;51.624;5.886;2024-02-21T03:33:57;101827.66;;;9.38;100.00
62708;BME280;48769;51.624;5.886;2024-02-21T03:36:22;101829.38;;;9.39;100.00
62708;BME280;48769;51.624;5.886;2024-02-21T03:39:25;101825.84;;;9.40;100.00
62708;BME280;48769;51.624;5.886;2024-02-21T03:41:51;101818.81;;;9.39;100.00
62708;BME280;48769;51.624;5.886;2024-02-21T03:44:17;101810.88;;;9.40;100.00
62708;BME280;48769;51.624;5.886;2024-02-21T03:46:42;101810.03;;;9.38;100.00
62708;BME280;48769;51.624;5.886;2024-02-21T03:49:07;101807.47;;;9.36;100.00
62708;BME280;48769;51.624;5.886;2024-02-21T03:51:33;101796.00;;;9.38;100.00
62708;BME280;48769;51.624;5.886;2024-02-21T03:53:58;101795.16;;;9.37;100.00
62708;BME280;48769;51.624;5.886;2024-02-21T03:56:23;101795.16;;;9.37;100.00
62708;BME280;48769;51.624;5.886;2024-02-21T03:58:49;101802.13;;;9.38;100.00
62708;BME280;48769;51.624;5.886;2024-02-21T04:01:15;101800.31;;;9.40;100.00
62708;BME280;48769;51.624;5.886;2024-02-21T04:03:42;101800.22;;;9.43;100.00
62708;BME280;48769;51.624;5.886;2024-02-21T04:06:08;101791.47;;;9.43;100.00
62708;BME280;48769;51.624;5.886;2024-02-21T04:08:33;101802.03;;;9.41;100.00
62708;BME280;48769;51.624;5.886;2024-02-21T04:10:59;101792.31;;;9.43;100.00
62708;BME280;48769;51.624;5.886;2024-02-21T04:13:24;101788.75;;;9.44;100.00
62708;BME280;48769;51.624;5.886;2024-02-21T04:15:50;101794.09;;;9.43;100.00
62708;BME280;48769;51.624;5.886;2024-02-21T04:18:16;101794.09;;;9.43;100.00
62708;BME280;48769;51.624;5.886;2024-02-21T04:20:41;101794.94;;;9.43;100.00
62708;BME280;48769;51.624;5.886;2024-02-21T04:23:06;101800.25;;;9.42;100.00
62708;BME280;48769;51.624;5.886;2024-02-21T04:25:32;101797.59;;;9.43;100.00
62708;BME280;48769;51.624;5.886;2024-02-21T04:27:57;101792.31;;;9.43;100.00
62708;BME280;48769;51.624;5.886;2024-02-21T04:30:22;101802.88;;;9.43;100.00
62708;BME280;48769;51.624;5.886;2024-02-21T04:32:47;101802.09;;;9.40;100.00
62708;BME280;48769;51.624;5.886;2024-02-21T04:35:13;101795.91;;;9.41;100.00
62708;BME280;48769;51.624;5.886;2024-02-21T04:37:38;101795.91;;;9.41;100.00
62708;BME280;48769;51.624;5.886;2024-02-21T04:40:04;101791.50;;;9.41;100.00
62708;BME280;48769;51.624;5.886;2024-02-21T04:42:29;101784.50;;;9.40;100.00
62708;BME280;48769;51.624;5.886;2024-02-21T04:44:54;101785.28;;;9.42;100.00
62708;BME280;48769;51.624;5.886;2024-02-21T04:47:20;101795.03;;;9.40;100.00
62708;BME280;48769;51.624;5.886;2024-02-21T04:49:46;101796.75;;;9.41;100.00
62708;BME280;48769;51.624;5.886;2024-02-21T04:52:11;101795.84;;;9.42;100.00
62708;BME280;48769;51.624;5.886;2024-02-21T04:54:40;101802.03;;;9.41;100.00
62708;BME280;48769;51.624;5.886;2024-02-21T04:57:05;101798.47;;;9.42;100.00
62708;BME280;48769;51.624;5.886;2024-02-21T04:59:31;101788.94;;;9.38;100.00
62708;BME280;48769;51.624;5.886;2024-02-21T05:01:56;101784.50;;;9.40;100.00
62708;BME280;48769;51.624;5.886;2024-02-21T05:04:22;101773.94;;;9.40;100.00
62708;BME280;48769;51.624;5.886;2024-02-21T05:06:47;101781.03;;;9.38;100.00
62708;BME280;48769;51.624;5.886;2024-02-21T05:09:12;101777.59;;;9.36;100.00
62708;BME280;48769;51.624;5.886;2024-02-21T05:11:38;101778.59;;;9.32;100.00
62708;BME280;48769;51.624;5.886;2024-02-21T05:14:04;101772.25;;;9.38;100.00
62708;BME280;48769;51.624;5.886;2024-02-21T05:16:29;101767.06;;;9.36;100.00
62708;BME280;48769;51.624;5.886;2024-02-21T05:18:55;101762.66;;;9.35;100.00
62708;BME280;48769;51.624;5.886;2024-02-21T05:21:22;101766.94;;;9.39;100.00
62708;BME280;48769;51.624;5.886;2024-02-21T05:23:49;101753.88;;;9.36;100.00
62708;BME280;48769;51.624;5.886;2024-02-21T05:26:20;101751.34;;;9.33;100.00
62708;BME280;48769;51.624;5.886;2024-02-21T05:28:46;101754.94;;;9.29;100.00
62708;BME280;48769;51.624;5.886;2024-02-21T05:31:11;101748.78;;;9.30;100.00
62708;BME280;48769;51.624;5.886;2024-02-21T05:33:37;101742.69;;;9.28;100.00
62708;BME280;48769;51.624;5.886;2024-02-21T05:36:02;101740.13;;;9.26;100.00
62708;BME280;48769;51.624;5.886;2024-02-21T05:38:28;101732.31;;;9.23;100.00
62708;BME280;48769;51.624;5.886;2024-02-21T05:40:53;101734.84;;;9.26;100.00
62708;BME280;48769;51.624;5.886;2024-02-21T05:43:18;101726.97;;;9.25;100.00
62708;BME280;48769;51.624;5.886;2024-02-21T05:45:43;101718.22;;;9.23;100.00
62708;BME280;48769;51.624;5.886;2024-02-21T05:48:09;101716.50;;;9.22;100.00
62708;BME280;48769;51.624;5.886;2024-02-21T05:50:34;101713.97;;;9.19;100.00
62708;BME280;48769;51.624;5.886;2024-02-21T05:52:59;101704.25;;;9.21;100.00
62708;BME280;48769;51.624;5.886;2024-02-21T05:55:25;101712.25;;;9.18;100.00
62708;BME280;48769;51.624;5.886;2024-02-21T05:57:53;101707.91;;;9.17;100.00
62708;BME280;48769;51.624;5.886;2024-02-21T06:00:18;101701.75;;;9.16;100.00
62708;BME280;48769;51.624;5.886;2024-02-21T06:02:44;101694.72;;;9.17;100.00
62708;BME280;48769;51.624;5.886;2024-02-21T06:05:09;101697.38;;;9.17;100.00
62708;BME280;48769;51.624;5.886;2024-02-21T06:07:35;101694.72;;;9.17;100.00
62708;BME280;48769;51.624;5.886;2024-02-21T06:10:01;101688.63;;;9.15;100.00
62708;BME280;48769;51.624;5.886;2024-02-21T06:12:27;101695.63;;;9.16;100.00
62708;BME280;48769;51.624;5.886;2024-02-21T06:14:52;101697.31;;;9.18;100.00
62708;BME280;48769;51.624;5.886;2024-02-21T06:17:17;101690.34;;;9.16;100.00
62708;BME280;48769;51.624;5.886;2024-02-21T06:19:43;101683.34;;;9.15;100.00
62708;BME280;48769;51.624;5.886;2024-02-21T06:22:09;101674.59;;;9.14;100.00
62708;BME280;48769;51.624;5.886;2024-02-21T06:24:35;101674.63;;;9.12;100.00
62708;BME280;48769;51.624;5.886;2024-02-21T06:27:02;101682.50;;;9.14;100.00
62708;BME280;48769;51.624;5.886;2024-02-21T06:29:27;101678.09;;;9.15;100.00
62708;BME280;48769;51.624;5.886;2024-02-21T06:31:52;101683.25;;;9.18;100.00
62708;BME280;48769;51.624;5.886;2024-02-21T06:34:18;101676.22;;;9.18;100.00
62708;BME280;48769;51.624;5.886;2024-02-21T06:36:44;101676.38;;;9.13;100.00
62708;BME280;48769;51.624;5.886;2024-02-21T06:39:10;101663.31;;;9.09;100.00
62708;BME280;48769;51.624;5.886;2024-02-21T06:41:36;101678.13;;;9.13;100.00
62708;BME280;48769;51.624;5.886;2024-02-21T06:44:02;101666.59;;;9.17;100.00
62708;BME280;48769;51.624;5.886;2024-02-21T06:46:28;101672.66;;;9.19;100.00
62708;BME280;48769;51.624;5.886;2024-02-21T06:48:54;101684.97;;;9.19;100.00
62708;BME280;48769;51.624;5.886;2024-02-21T06:51:21;101673.56;;;9.18;100.00
62708;BME280;48769;51.624;5.886;2024-02-21T06:53:47;101681.69;;;9.12;100.00
62708;BME280;48769;51.624;5.886;2024-02-21T06:56:12;101677.16;;;9.16;100.00
62708;BME280;48769;51.624;5.886;2024-02-21T06:58:38;101672.75;;;9.16;100.00
62708;BME280;48769;51.624;5.886;2024-02-21T07:01:03;101678.91;;;9.17;100.00
62708;BME280;48769;51.624;5.886;2024-02-21T07:03:28;101685.84;;;9.19;100.00
62708;BME280;48769;51.624;5.886;2024-02-21T07:05:54;101673.47;;;9.21;100.00
62708;BME280;48769;51.624;5.886;2024-02-21T07:08:19;101681.31;;;9.23;100.00
62708;BME280;48769;51.624;5.886;2024-02-21T07:10:44;101671.75;;;9.20;100.00
62708;BME280;48769;51.624;5.886;2024-02-21T07:13:10;101672.75;;;9.16;100.00
62708;BME280;48769;51.624;5.886;2024-02-21T07:15:35;101677.13;;;9.17;100.00
62708;BME280;48769;51.624;5.886;2024-02-21T07:18:01;101660.34;;;9.20;100.00
62708;BME280;48769;51.624;5.886;2024-02-21T07:20:27;101663.97;;;9.16;100.00
62708;BME280;48769;51.624;5.886;2024-02-21T07:22:52;101662.00;;;9.22;100.00
62708;BME280;48769;51.624;5.886;2024-02-21T07:25:17;101665.41;;;9.26;100.00
62708;BME280;48769;51.624;5.886;2024-02-21T07:27:44;101662.06;;;9.21;100.00
62708;BME280;48769;51.624;5.886;2024-02-21T07:30:10;101657.66;;;9.21;100.00
62708;BME280;48769;51.624;5.886;2024-02-21T07:32:35;101646.25;;;9.21;100.00
62708;BME280;48769;51.624;5.886;2024-02-21T07:35:01;101648.72;;;9.25;100.00
62708;BME280;48769;51.624;5.886;2024-02-21T07:37:26;101644.22;;;9.29;100.00
62708;BME280;48769;51.624;5.886;2024-02-21T07:39:52;101636.31;;;9.29;100.00
62708;BME280;48769;51.624;5.886;2024-02-21T07:42:17;101637.97;;;9.31;100.00
62708;BME280;48769;51.624;5.886;2024-02-21T07:44:42;101637.13;;;9.31;100.00
62708;BME280;48769;51.624;5.886;2024-02-21T07:47:07;101630.03;;;9.33;100.00
62708;BME280;48769;51.624;5.886;2024-02-21T07:49:33;101623.00;;;9.32;100.00
62708;BME280;48769;51.624;5.886;2024-02-21T07:52:07;101620.28;;;9.35;100.00
62708;BME280;48769;51.624;5.886;2024-02-21T07:54:47;101615.94;;;9.34;100.00
62708;BME280;48769;51.624;5.886;2024-02-21T07:57:12;101607.00;;;9.38;100.00
62708;BME280;48769;51.624;5.886;2024-02-21T07:59:38;101607.00;;;9.38;100.00
62708;BME280;48769;51.624;5.886;2024-02-21T08:02:03;101591.16;;;9.38;100.00
62708;BME280;48769;51.624;5.886;2024-02-21T08:04:31;101589.19;;;9.45;100.00
62708;BME280;48769;51.624;5.886;2024-02-21T08:06:57;101586.50;;;9.46;100.00
62708;BME280;48769;51.624;5.886;2024-02-21T08:09:26;101576.84;;;9.45;100.00
62708;BME280;48769;51.624;5.886;2024-02-21T08:11:51;101574.28;;;9.44;100.00
62708;BME280;48769;51.624;5.886;2024-02-21T08:14:17;101577.84;;;9.43;100.00
62708;BME280;48769;51.624;5.886;2024-02-21T08:16:42;101576.84;;;9.45;100.00
62708;BME280;48769;51.624;5.886;2024-02-21T08:19:08;101576.63;;;9.51;100.00
62708;BME280;48769;51.624;5.886;2024-02-21T08:21:34;101578.28;;;9.55;100.00
62708;BME280;48769;51.624;5.886;2024-02-21T08:23:59;101565.75;;;9.60;100.00
62708;BME280;48769;51.624;5.886;2024-02-21T08:26:24;101560.50;;;9.60;100.00
62708;BME280;48769;51.624;5.886;2024-02-21T08:28:52;101563.13;;;9.60;100.00
62708;BME280;48769;51.624;5.886;2024-02-21T08:31:19;101567.38;;;9.65;100.00
62708;BME280;48769;51.624;5.886;2024-02-21T08:33:45;101561.09;;;9.69;100.00
62708;BME280;48769;51.624;5.886;2024-02-21T08:36:17;101559.53;;;9.63;100.00
62708;BME280;48769;51.624;5.886;2024-02-21T08:38:43;101550.78;;;9.61;100.00
62708;BME280;48769;51.624;5.886;2024-02-21T08:41:08;101544.56;;;9.64;100.00
62708;BME280;48769;51.624;5.886;2024-02-21T08:43:33;101540.41;;;9.56;100.00
62708;BME280;48769;51.624;5.886;2024-02-21T08:46:01;101535.81;;;9.62;100.00
62708;BME280;48769;51.624;5.886;2024-02-21T08:48:26;101531.19;;;9.68;100.00
62708;BME280;48769;51.624;5.886;2024-02-21T08:50:51;101535.50;;;9.71;100.00
62708;BME280;48769;51.624;5.886;2024-02-21T08:53:16;101527.53;;;9.72;100.00
62708;BME280;48769;51.624;5.886;2024-02-21T08:55:42;101529.25;;;9.73;100.00
62708;BME280;48769;51.624;5.886;2024-02-21T08:58:09;101519.66;;;9.71;100.00
62708;BME280;48769;51.624;5.886;2024-02-21T09:00:34;101521.16;;;9.78;100.00
62708;BME280;48769;51.624;5.886;2024-02-21T09:03:00;101517.66;;;9.77;100.00
62708;BME280;48769;51.624;5.886;2024-02-21T09:05:25;101502.78;;;9.75;100.00
62708;BME280;48769;51.624;5.886;2024-02-21T09:07:51;101502.84;;;9.73;100.00
62708;BME280;48769;51.624;5.886;2024-02-21T09:10:16;101491.22;;;9.79;100.00
62708;BME280;48769;51.624;5.886;2024-02-21T09:12:42;101497.16;;;9.84;100.00
62708;BME280;48769;51.624;5.886;2024-02-21T09:15:07;101495.28;;;9.88;100.00
62708;BME280;48769;51.624;5.886;2024-02-21T09:17:33;101491.09;;;9.82;100.00
62708;BME280;48769;51.624;5.886;2024-02-21T09:19:58;101491.00;;;9.85;100.00
62708;BME280;48769;51.624;5.886;2024-02-21T09:22:27;101492.41;;;9.94;100.00
62708;BME280;48769;51.624;5.886;2024-02-21T09:24:52;101490.50;;;9.97;100.00
62708;BME280;48769;51.624;5.886;2024-02-21T09:27:18;101482.03;;;9.89;100.00
62708;BME280;48769;51.624;5.886;2024-02-21T09:29:43;101483.75;;;9.90;100.00
62708;BME280;48769;51.624;5.886;2024-02-21T09:32:09;101486.25;;;9.93;100.00
62708;BME280;48769;51.624;5.886;2024-02-21T09:34:34;101489.03;;;9.90;100.00
62708;BME280;48769;51.624;5.886;2024-02-21T09:36:59;101499.91;;;9.81;100.00
62708;BME280;48769;51.624;5.886;2024-02-21T09:39:25;101499.25;;;9.76;100.00
62708;BME280;48769;51.624;5.886;2024-02-21T09:41:53;101498.44;;;9.74;100.00
62708;BME280;48769;51.624;5.886;2024-02-21T09:44:21;101491.56;;;9.70;100.00
62708;BME280;48769;51.624;5.886;2024-02-21T09:47:03;101483.88;;;9.64;100.00
62708;BME280;48769;51.624;5.886;2024-02-21T09:49:30;101477.38;;;9.49;100.00
62708;BME280;48769;51.624;5.886;2024-02-21T09:52:04;101471.25;;;9.48;100.00
62708;BME280;48769;51.624;5.886;2024-02-21T09:54:30;101473.09;;;9.46;100.00
62708;BME280;48769;51.624;5.886;2024-02-21T09:57:05;101466.81;;;9.49;100.00
62708;BME280;48769;51.624;5.886;2024-02-21T09:59:32;101453.59;;;9.50;100.00
62708;BME280;48769;51.624;5.886;2024-02-21T10:01:58;101458.75;;;9.53;100.00
62708;BME280;48769;51.624;5.886;2024-02-21T10:04:27;101455.31;;;9.51;100.00
62708;BME280;48769;51.624;5.886;2024-02-21T10:06:53;101446.22;;;9.60;100.00
62708;BME280;48769;51.624;5.886;2024-02-21T10:09:28;101437.56;;;9.56;100.00
62708;BME280;48769;51.624;5.886;2024-02-21T10:11:54;101435.66;;;9.60;100.00
62708;BME280;48769;51.624;5.886;2024-02-21T10:14:20;101428.72;;;9.57;100.00
62708;BME280;48769;51.624;5.886;2024-02-21T10:16:48;101417.94;;;9.64;100.00
62708;BME280;48769;51.624;5.886;2024-02-21T10:19:20;101418.56;;;9.70;100.00
62708;BME280;48769;51.624;5.886;2024-02-21T10:22:05;101405.16;;;9.75;100.00
62708;BME280;48769;51.624;5.886;2024-02-21T10:24:31;101392.66;;;9.80;100.00
62708;BME280;48769;51.624;5.886;2024-02-21T10:27:06;101384.72;;;9.81;100.00
62708;BME280;48769;51.624;5.886;2024-02-21T10:29:39;101373.03;;;9.87;100.00
62708;BME280;48769;51.624;5.886;2024-02-21T10:34:31;101367.00;;;10.05;100.00
62708;BME280;48769;51.624;5.886;2024-02-21T10:37:14;101349.19;;;10.11;100.00
62708;BME280;48769;51.624;5.886;2024-02-21T10:39:41;101346.50;;;10.12;100.00
62708;BME280;48769;51.624;5.886;2024-02-21T10:42:10;101349.81;;;10.17;100.00
62708;BME280;48769;51.624;5.886;2024-02-21T10:44:37;101353.97;;;10.23;100.00
62708;BME280;48769;51.624;5.886;2024-02-21T10:47:09;101340.03;;;10.19;100.00
62708;BME280;48769;51.624;5.886;2024-02-21T10:49:57;101326.47;;;10.28;100.00
62708;BME280;48769;51.624;5.886;2024-02-21T10:55:26;101307.53;;;10.39;100.00
62708;BME280;48769;51.624;5.886;2024-02-21T10:57:52;101299.34;;;10.45;100.00
62708;BME280;48769;51.624;5.886;2024-02-21T11:00:18;101285.50;;;10.40;100.00
62708;BME280;48769;51.624;5.886;2024-02-21T11:02:44;101272.16;;;10.43;100.00
62708;BME280;48769;51.624;5.886;2024-02-21T11:05:11;101272.03;;;10.46;100.00
62708;BME280;48769;51.624;5.886;2024-02-21T11:07:37;101243.47;;;10.55;100.00
62708;BME280;48769;51.624;5.886;2024-02-21T11:10:03;101253.47;;;10.67;100.00
62708;BME280;48769;51.624;5.886;2024-02-21T11:12:32;101238.34;;;10.70;100.00
62708;BME280;48769;51.624;5.886;2024-02-21T11:15:07;101231.00;;;10.77;100.00
62708;BME280;48769;51.624;5.886;2024-02-21T11:17:33;101236.41;;;10.74;100.00
62708;BME280;48769;51.624;5.886;2024-02-21T11:19:58;101241.63;;;10.75;100.00
62708;BME280;48769;51.624;5.886;2024-02-21T11:22:25;101244.06;;;10.80;100.00
62708;BME280;48769;51.624;5.886;2024-02-21T11:24:54;101239.56;;;10.82;100.00
62708;BME280;48769;51.624;5.886;2024-02-21T11:27:21;101244.06;;;10.80;100.00
62708;BME280;48769;51.624;5.886;2024-02-21T11:29:55;101240.75;;;10.75;100.00
62708;BME280;48769;51.624;5.886;2024-02-21T11:32:21;101239.72;;;10.79;100.00
62708;BME280;48769;51.624;5.886;2024-02-21T11:35:03;101226.94;;;10.89;100.00
62708;BME280;48769;51.624;5.886;2024-02-21T11:37:31;101217.06;;;10.92;100.00
62708;BME280;48769;51.624;5.886;2024-02-21T11:40:02;101209.19;;;10.91;100.00
62708;BME280;48769;51.624;5.886;2024-02-21T11:42:28;101199.19;;;10.97;100.00
62708;BME280;48769;51.624;5.886;2024-02-21T11:44:55;101197.91;;;10.87;100.00
62708;BME280;48769;51.624;5.886;2024-02-21T11:47:22;101196.22;;;10.86;100.00
62708;BME280;48769;51.624;5.886;2024-02-21T11:49:48;101193.06;;;10.78;100.00
62708;BME280;48769;51.624;5.886;2024-02-21T11:52:24;101178.00;;;10.80;100.00
62708;BME280;48769;51.624;5.886;2024-02-21T11:54:54;101189.19;;;10.85;100.00
62708;BME280;48769;51.624;5.886;2024-02-21T11:57:21;101176.22;;;10.81;100.00
62708;BME280;48769;51.624;5.886;2024-02-21T11:59:47;101166.06;;;10.90;100.00
62708;BME280;48769;51.624;5.886;2024-02-21T12:02:14;101137.66;;;11.13;100.00
62708;BME280;48769;51.624;5.886;2024-02-21T12:04:40;101143.50;;;11.37;100.00
62708;BME280;48769;51.624;5.886;2024-02-21T12:07:07;101132.63;;;11.43;100.00
62708;BME280;48769;51.624;5.886;2024-02-21T12:09:34;101134.00;;;11.50;100.00
62708;BME280;48769;51.624;5.886;2024-02-21T12:12:04;101128.19;;;11.43;100.00
62708;BME280;48769;51.624;5.886;2024-02-21T12:14:31;101131.63;;;11.45;100.00
62708;BME280;48769;51.624;5.886;2024-02-21T12:16:56;101133.47;;;11.43;100.00
62708;BME280;48769;51.624;5.886;2024-02-21T12:19:22;101116.19;;;11.36;100.00
62708;BME280;48769;51.624;5.886;2024-02-21T12:21:48;101109.50;;;11.29;100.00
62708;BME280;48769;51.624;5.886;2024-02-21T12:24:23;101090.84;;;11.32;100.00
62708;BME280;48769;51.624;5.886;2024-02-21T12:26:49;101072.41;;;11.48;100.00
62708;BME280;48769;51.624;5.886;2024-02-21T12:29:15;101067.63;;;11.72;100.00
62708;BME280;48769;51.624;5.886;2024-02-21T12:31:40;101059.19;;;11.81;100.00
62708;BME280;48769;51.624;5.886;2024-02-21T12:34:06;101049.09;;;11.89;100.00
62708;BME280;48769;51.624;5.886;2024-02-21T12:36:32;101048.69;;;11.97;100.00
62708;BME280;48769;51.624;5.886;2024-02-21T12:38:57;101037.06;;;12.00;100.00
62708;BME280;48769;51.624;5.886;2024-02-21T12:41:22;101030.38;;;11.92;100.00
62708;BME280;48769;51.624;5.886;2024-02-21T12:43:50;101031.09;;;11.96;100.00
62708;BME280;48769;51.624;5.886;2024-02-21T12:46:16;101024.00;;;11.97;100.00
62708;BME280;48769;51.624;5.886;2024-02-21T12:48:41;101014.84;;;12.02;100.00
62708;BME280;48769;51.624;5.886;2024-02-21T12:51:07;100994.78;;;12.14;100.00